sensor_id;sensor_type;location;lat;lon;timestamp;temperature;humidity
71754;DHT22;59593;51.716;7.016;2023-03-12T11:54:36;6.90;99.90
71754;DHT22;59593;51.716;7.016;2023-03-12T12:11:20;7.50;99.90
71754;DHT22;59593;51.716;7.016;2023-03-12T12:19:21;7.70;99.90
71754;DHT22;59593;51.716;7.016;2023-03-12T12:22:33;7.70;99.90
71754;DHT22;59593;51.716;7.016;2023-03-12T12:27:48;7.80;99.90
71754;DHT22;59593;51.716;7.016;2023-03-12T12:35:48;8.00;99.90
71754;DHT22;59593;51.716;7.016;2023-03-12T12:43:38;8.40;99.90
71754;DHT22;59593;51.716;7.016;2023-03-12T12:46:14;8.40;99.90
71754;DHT22;59593;51.716;7.016;2023-03-12T12:49:02;8.40;99.90
71754;DHT22;59593;51.716;7.016;2023-03-12T12:51:35;8.50;99.90
71754;DHT22;59593;51.716;7.016;2023-03-12T12:56:55;8.60;99.90
71754;DHT22;59593;51.716;7.016;2023-03-12T13:03:20;8.80;99.90
71754;DHT22;59593;51.716;7.016;2023-03-12T13:06:15;9.00;99.90
71754;DHT22;59593;51.716;7.016;2023-03-12T13:16:45;9.40;99.90
71754;DHT22;59593;51.716;7.016;2023-03-12T13:22:17;9.60;99.90
71754;DHT22;59593;51.716;7.016;2023-03-12T13:24:56;9.60;99.90
71754;DHT22;59593;51.716;7.016;2023-03-12T13:27:35;9.60;99.90
71754;DHT22;59593;51.716;7.016;2023-03-12T13:35:35;10.20;99.90
71754;DHT22;59593;51.716;7.016;2023-03-12T13:38:04;10.20;99.90
71754;DHT22;59593;51.716;7.016;2023-03-12T13:43:29;10.20;99.90
71754;DHT22;59593;51.716;7.016;2023-03-12T13:48:33;10.40;99.90
71754;DHT22;59593;51.716;7.016;2023-03-12T13:53:47;10.90;99.90
71754;DHT22;59593;51.716;7.016;2023-03-12T13:56:16;10.80;99.90
71754;DHT22;59593;51.716;7.016;2023-03-12T13:59:04;10.80;99.90
71754;DHT22;59593;51.716;7.016;2023-03-12T14:01:35;10.80;99.90
71754;DHT22;59593;51.716;7.016;2023-03-12T14:04:06;10.70;99.90
71754;DHT22;59593;51.716;7.016;2023-03-12T14:07:36;10.80;99.90
71754;DHT22;59593;51.716;7.016;2023-03-12T14:12:42;11.00;99.90
71754;DHT22;59593;51.716;7.016;2023-03-12T14:18:00;11.10;99.90
71754;DHT22;59593;51.716;7.016;2023-03-12T14:20:27;11.10;99.90
71754;DHT22;59593;51.716;7.016;2023-03-12T14:23:00;11.10;99.90
71754;DHT22;59593;51.716;7.016;2023-03-12T14:25:43;11.10;99.90
71754;DHT22;59593;51.716;7.016;2023-03-12T14:28:21;11.10;99.90
71754;DHT22;59593;51.716;7.016;2023-03-12T14:30:59;11.00;99.90
71754;DHT22;59593;51.716;7.016;2023-03-12T14:33:34;11.00;99.90
71754;DHT22;59593;51.716;7.016;2023-03-12T14:36:08;11.00;99.90
71754;DHT22;59593;51.716;7.016;2023-03-12T14:38:39;11.00;99.90
71754;DHT22;59593;51.716;7.016;2023-03-12T14:43:39;11.10;99.90
71754;DHT22;59593;51.716;7.016;2023-03-12T14:46:13;11.10;99.90
71754;DHT22;59593;51.716;7.016;2023-03-12T14:48:39;11.10;99.90
71754;DHT22;59593;51.716;7.016;2023-03-12T14:51:06;11.10;99.90
71754;DHT22;59593;51.716;7.016;2023-03-12T14:53:33;11.10;99.90
71754;DHT22;59593;51.716;7.016;2023-03-12T14:56:34;11.20;99.90
71754;DHT22;59593;51.716;7.016;2023-03-12T14:58:55;11.20;99.90
71754;DHT22;59593;51.716;7.016;2023-03-12T15:01:23;11.20;99.90
71754;DHT22;59593;51.716;7.016;2023-03-12T15:03:53;11.20;99.90
71754;DHT22;59593;51.716;7.016;2023-03-12T15:06:28;11.20;99.90
71754;DHT22;59593;51.716;7.016;2023-03-12T15:08:55;11.20;99.90
71754;DHT22;59593;51.716;7.016;2023-03-12T15:11:23;11.20;99.90
71754;DHT22;59593;51.716;7.016;2023-03-12T15:13:51;11.20;99.90
71754;DHT22;59593;51.716;7.016;2023-03-12T15:16:18;11.20;99.90
71754;DHT22;59593;51.716;7.016;2023-03-12T15:18:44;11.30;99.90
71754;DHT22;59593;51.716;7.016;2023-03-12T15:21:12;11.20;99.90
71754;DHT22;59593;51.716;7.016;2023-03-12T15:23:39;11.20;99.90
71754;DHT22;59593;51.716;7.016;2023-03-12T15:26:33;11.20;99.90
71754;DHT22;59593;51.716;7.016;2023-03-12T15:31:43;11.30;99.90
71754;DHT22;59593;51.716;7.016;2023-03-12T15:34:11;11.30;99.90
71754;DHT22;59593;51.716;7.016;2023-03-12T15:36:47;11.20;99.90
71754;DHT22;59593;51.716;7.016;2023-03-12T15:39:31;11.30;99.90
71754;DHT22;59593;51.716;7.016;2023-03-12T15:42:06;11.30;99.90
71754;DHT22;59593;51.716;7.016;2023-03-12T15:45:00;11.30;99.90
71754;DHT22;59593;51.716;7.016;2023-03-12T15:47:31;11.30;99.90
71754;DHT22;59593;51.716;7.016;2023-03-12T15:55:28;11.40;99.90
71754;DHT22;59593;51.716;7.016;2023-03-12T15:57:56;11.30;99.90
71754;DHT22;59593;51.716;7.016;2023-03-12T16:00:27;11.10;99.90
71754;DHT22;59593;51.716;7.016;2023-03-12T16:05:32;11.20;99.90
71754;DHT22;59593;51.716;7.016;2023-03-12T16:10:50;11.10;99.90
71754;DHT22;59593;51.716;7.016;2023-03-12T16:13:18;11.10;99.90
71754;DHT22;59593;51.716;7.016;2023-03-12T16:15:45;11.10;99.90
71754;DHT22;59593;51.716;7.016;2023-03-12T16:18:12;11.00;99.90
71754;DHT22;59593;51.716;7.016;2023-03-12T16:20:38;11.10;99.90
71754;DHT22;59593;51.716;7.016;2023-03-12T16:23:04;11.00;99.90
71754;DHT22;59593;51.716;7.016;2023-03-12T16:25:30;11.00;99.90
71754;DHT22;59593;51.716;7.016;2023-03-12T16:27:57;11.00;99.90
71754;DHT22;59593;51.716;7.016;2023-03-12T16:30:31;11.00;99.90
71754;DHT22;59593;51.716;7.016;2023-03-12T16:32:58;11.00;99.90
71754;DHT22;59593;51.716;7.016;2023-03-12T16:35:25;11.00;99.90
71754;DHT22;59593;51.716;7.016;2023-03-12T16:37:53;11.00;99.90
71754;DHT22;59593;51.716;7.016;2023-03-12T16:40:19;11.00;99.90
71754;DHT22;59593;51.716;7.016;2023-03-12T16:42:49;10.90;99.90
71754;DHT22;59593;51.716;7.016;2023-03-12T16:45:16;11.00;99.90
71754;DHT22;59593;51.716;7.016;2023-03-12T16:47:43;11.00;99.90
71754;DHT22;59593;51.716;7.016;2023-03-12T16:50:16;11.00;99.90
71754;DHT22;59593;51.716;7.016;2023-03-12T16:52:42;11.00;99.90
71754;DHT22;59593;51.716;7.016;2023-03-12T16:55:13;11.00;99.90
71754;DHT22;59593;51.716;7.016;2023-03-12T16:57:44;11.00;99.90
71754;DHT22;59593;51.716;7.016;2023-03-12T17:00:15;11.10;99.90
71754;DHT22;59593;51.716;7.016;2023-03-12T17:02:41;11.10;99.90
71754;DHT22;59593;51.716;7.016;2023-03-12T17:05:07;11.00;99.90
71754;DHT22;59593;51.716;7.016;2023-03-12T17:07:33;11.10;99.90
71754;DHT22;59593;51.716;7.016;2023-03-12T17:09:59;11.00;99.90
71754;DHT22;59593;51.716;7.016;2023-03-12T17:12:30;11.00;99.90
71754;DHT22;59593;51.716;7.016;2023-03-12T17:14:57;11.00;99.90
71754;DHT22;59593;51.716;7.016;2023-03-12T17:17:23;11.00;99.90
71754;DHT22;59593;51.716;7.016;2023-03-12T17:19:52;11.00;99.90
71754;DHT22;59593;51.716;7.016;2023-03-12T17:22:19;10.90;99.90
71754;DHT22;59593;51.716;7.016;2023-03-12T17:24:45;10.90;99.90
71754;DHT22;59593;51.716;7.016;2023-03-12T17:27:12;10.90;99.90
71754;DHT22;59593;51.716;7.016;2023-03-12T17:29:39;11.00;99.90
71754;DHT22;59593;51.716;7.016;2023-03-12T17:32:04;11.00;99.90
71754;DHT22;59593;51.716;7.016;2023-03-12T17:34:30;10.90;99.90
71754;DHT22;59593;51.716;7.016;2023-03-12T17:36:58;10.90;99.90
71754;DHT22;59593;51.716;7.016;2023-03-12T17:39:24;10.90;99.90
71754;DHT22;59593;51.716;7.016;2023-03-12T17:41:53;11.00;99.90
71754;DHT22;59593;51.716;7.016;2023-03-12T17:44:18;11.00;99.90
71754;DHT22;59593;51.716;7.016;2023-03-12T17:46:44;10.90;99.90
71754;DHT22;59593;51.716;7.016;2023-03-12T17:49:10;11.10;99.90
71754;DHT22;59593;51.716;7.016;2023-03-12T17:51:35;11.00;99.90
71754;DHT22;59593;51.716;7.016;2023-03-12T17:54:01;11.10;99.90
71754;DHT22;59593;51.716;7.016;2023-03-12T17:56:27;11.10;99.90
71754;DHT22;59593;51.716;7.016;2023-03-12T17:58:53;11.10;99.90
71754;DHT22;59593;51.716;7.016;2023-03-12T18:01:19;11.00;99.90
71754;DHT22;59593;51.716;7.016;2023-03-12T18:03:44;11.00;99.90
71754;DHT22;59593;51.716;7.016;2023-03-12T18:06:11;11.00;99.90
71754;DHT22;59593;51.716;7.016;2023-03-12T18:08:36;11.00;99.90
71754;DHT22;59593;51.716;7.016;2023-03-12T18:11:02;11.00;99.90
71754;DHT22;59593;51.716;7.016;2023-03-12T18:13:28;10.90;99.90
71754;DHT22;59593;51.716;7.016;2023-03-12T18:15:56;10.90;99.90
71754;DHT22;59593;51.716;7.016;2023-03-12T18:18:23;10.90;99.90
71754;DHT22;59593;51.716;7.016;2023-03-12T18:20:49;10.90;99.90
71754;DHT22;59593;51.716;7.016;2023-03-12T18:23:16;10.90;99.90
71754;DHT22;59593;51.716;7.016;2023-03-12T18:25:42;10.90;99.90
71754;DHT22;59593;51.716;7.016;2023-03-12T18:28:07;10.80;99.90
71754;DHT22;59593;51.716;7.016;2023-03-12T18:30:33;10.90;99.90
71754;DHT22;59593;51.716;7.016;2023-03-12T18:32:59;10.80;99.90
71754;DHT22;59593;51.716;7.016;2023-03-12T18:35:25;10.80;99.90
71754;DHT22;59593;51.716;7.016;2023-03-12T18:37:54;10.80;99.90
71754;DHT22;59593;51.716;7.016;2023-03-12T18:40:20;10.80;99.90
71754;DHT22;59593;51.716;7.016;2023-03-12T18:42:46;10.80;99.90
71754;DHT22;59593;51.716;7.016;2023-03-12T18:45:11;10.70;99.90
71754;DHT22;59593;51.716;7.016;2023-03-12T18:47:37;10.80;99.90
71754;DHT22;59593;51.716;7.016;2023-03-12T18:50:05;10.80;99.90
71754;DHT22;59593;51.716;7.016;2023-03-12T18:52:34;10.70;99.90
71754;DHT22;59593;51.716;7.016;2023-03-12T18:55:00;10.70;99.90
71754;DHT22;59593;51.716;7.016;2023-03-12T18:57:30;10.80;99.90
71754;DHT22;59593;51.716;7.016;2023-03-12T18:59:57;10.80;99.90
71754;DHT22;59593;51.716;7.016;2023-03-12T19:02:24;10.70;99.90
71754;DHT22;59593;51.716;7.016;2023-03-12T19:04:49;10.60;99.90
71754;DHT22;59593;51.716;7.016;2023-03-12T19:07:18;10.60;99.90
71754;DHT22;59593;51.716;7.016;2023-03-12T19:09:44;10.60;99.90
71754;DHT22;59593;51.716;7.016;2023-03-12T19:12:10;10.60;99.90
71754;DHT22;59593;51.716;7.016;2023-03-12T19:14:36;10.60;99.90
71754;DHT22;59593;51.716;7.016;2023-03-12T19:17:05;10.60;99.90
71754;DHT22;59593;51.716;7.016;2023-03-12T19:19:31;10.60;99.90
71754;DHT22;59593;51.716;7.016;2023-03-12T19:21:57;10.60;99.90
71754;DHT22;59593;51.716;7.016;2023-03-12T19:24:23;10.60;99.90
71754;DHT22;59593;51.716;7.016;2023-03-12T19:26:49;10.60;99.90
71754;DHT22;59593;51.716;7.016;2023-03-12T19:29:14;10.60;99.90
71754;DHT22;59593;51.716;7.016;2023-03-12T19:31:41;10.60;99.90
71754;DHT22;59593;51.716;7.016;2023-03-12T19:34:07;10.50;99.90
71754;DHT22;59593;51.716;7.016;2023-03-12T19:36:33;10.50;99.90
71754;DHT22;59593;51.716;7.016;2023-03-12T19:38:58;10.60;99.90
71754;DHT22;59593;51.716;7.016;2023-03-12T19:41:24;10.60;99.90
71754;DHT22;59593;51.716;7.016;2023-03-12T19:43:50;10.70;99.90
71754;DHT22;59593;51.716;7.016;2023-03-12T19:46:17;10.70;99.90
71754;DHT22;59593;51.716;7.016;2023-03-12T19:48:43;10.70;99.90
71754;DHT22;59593;51.716;7.016;2023-03-12T19:51:10;10.60;99.90
71754;DHT22;59593;51.716;7.016;2023-03-12T19:53:36;10.60;99.90
71754;DHT22;59593;51.716;7.016;2023-03-12T19:56:02;10.60;99.90
71754;DHT22;59593;51.716;7.016;2023-03-12T19:58:28;10.70;99.90
71754;DHT22;59593;51.716;7.016;2023-03-12T20:00:57;10.60;99.90
71754;DHT22;59593;51.716;7.016;2023-03-12T20:03:23;10.60;99.90
71754;DHT22;59593;51.716;7.016;2023-03-12T20:05:49;10.60;99.90
71754;DHT22;59593;51.716;7.016;2023-03-12T20:08:15;10.60;99.90
71754;DHT22;59593;51.716;7.016;2023-03-12T20:10:41;10.70;99.90
71754;DHT22;59593;51.716;7.016;2023-03-12T20:13:06;10.60;99.90
71754;DHT22;59593;51.716;7.016;2023-03-12T20:15:37;10.70;99.90
71754;DHT22;59593;51.716;7.016;2023-03-12T20:18:04;10.70;99.90
71754;DHT22;59593;51.716;7.016;2023-03-12T20:20:29;10.60;99.90
71754;DHT22;59593;51.716;7.016;2023-03-12T20:22:55;10.60;99.90
71754;DHT22;59593;51.716;7.016;2023-03-12T20:25:21;10.70;99.90
71754;DHT22;59593;51.716;7.016;2023-03-12T20:27:47;10.70;99.90
71754;DHT22;59593;51.716;7.016;2023-03-12T20:30:13;10.70;99.90
71754;DHT22;59593;51.716;7.016;2023-03-12T20:32:39;10.70;99.90
71754;DHT22;59593;51.716;7.016;2023-03-12T20:35:05;10.70;99.90
71754;DHT22;59593;51.716;7.016;2023-03-12T20:37:31;10.70;99.90
71754;DHT22;59593;51.716;7.016;2023-03-12T20:39:56;10.70;99.90
71754;DHT22;59593;51.716;7.016;2023-03-12T20:42:22;10.80;99.90
71754;DHT22;59593;51.716;7.016;2023-03-12T20:44:47;10.80;99.90
71754;DHT22;59593;51.716;7.016;2023-03-12T20:47:13;10.80;99.90
71754;DHT22;59593;51.716;7.016;2023-03-12T20:49:39;10.80;99.90
71754;DHT22;59593;51.716;7.016;2023-03-12T20:52:04;10.80;99.90
71754;DHT22;59593;51.716;7.016;2023-03-12T20:54:30;10.80;99.90
71754;DHT22;59593;51.716;7.016;2023-03-12T20:56:57;10.80;99.90
71754;DHT22;59593;51.716;7.016;2023-03-12T20:59:23;10.80;99.90
71754;DHT22;59593;51.716;7.016;2023-03-12T21:01:48;10.90;99.90
71754;DHT22;59593;51.716;7.016;2023-03-12T21:04:14;10.80;99.90
71754;DHT22;59593;51.716;7.016;2023-03-12T21:06:40;10.80;99.90
71754;DHT22;59593;51.716;7.016;2023-03-12T21:09:05;10.80;99.90
71754;DHT22;59593;51.716;7.016;2023-03-12T21:11:31;10.90;99.90
71754;DHT22;59593;51.716;7.016;2023-03-12T21:13:57;10.80;99.90
71754;DHT22;59593;51.716;7.016;2023-03-12T21:16:23;10.70;99.90
71754;DHT22;59593;51.716;7.016;2023-03-12T21:18:48;10.70;99.90
71754;DHT22;59593;51.716;7.016;2023-03-12T21:21:14;10.70;99.90
71754;DHT22;59593;51.716;7.016;2023-03-12T21:23:39;10.70;99.90
71754;DHT22;59593;51.716;7.016;2023-03-12T21:26:06;10.70;99.90
71754;DHT22;59593;51.716;7.016;2023-03-12T21:28:32;10.60;99.90
71754;DHT22;59593;51.716;7.016;2023-03-12T21:31:07;10.60;99.90
71754;DHT22;59593;51.716;7.016;2023-03-12T21:33:33;10.60;99.90
71754;DHT22;59593;51.716;7.016;2023-03-12T21:35:59;10.50;99.90
71754;DHT22;59593;51.716;7.016;2023-03-12T21:38:26;10.50;99.90
71754;DHT22;59593;51.716;7.016;2023-03-12T21:40:52;10.50;99.90
71754;DHT22;59593;51.716;7.016;2023-03-12T21:43:18;10.50;99.90
71754;DHT22;59593;51.716;7.016;2023-03-12T21:45:44;10.50;99.90
71754;DHT22;59593;51.716;7.016;2023-03-12T21:48:11;10.50;99.90
71754;DHT22;59593;51.716;7.016;2023-03-12T21:50:37;10.40;99.90
71754;DHT22;59593;51.716;7.016;2023-03-12T21:53:03;10.40;99.90
71754;DHT22;59593;51.716;7.016;2023-03-12T21:55:29;10.40;99.90
71754;DHT22;59593;51.716;7.016;2023-03-12T21:57:54;10.40;99.90
71754;DHT22;59593;51.716;7.016;2023-03-12T22:00:20;10.40;99.90
71754;DHT22;59593;51.716;7.016;2023-03-12T22:02:45;10.40;99.90
71754;DHT22;59593;51.716;7.016;2023-03-12T22:05:11;10.40;99.90
71754;DHT22;59593;51.716;7.016;2023-03-12T22:07:37;10.40;99.90
71754;DHT22;59593;51.716;7.016;2023-03-12T22:10:04;10.40;99.90
71754;DHT22;59593;51.716;7.016;2023-03-12T22:12:31;10.40;99.90
71754;DHT22;59593;51.716;7.016;2023-03-12T22:14:57;10.40;99.90
71754;DHT22;59593;51.716;7.016;2023-03-12T22:17:23;10.40;99.90
71754;DHT22;59593;51.716;7.016;2023-03-12T22:19:48;10.40;99.90
71754;DHT22;59593;51.716;7.016;2023-03-12T22:22:14;10.30;99.90
71754;DHT22;59593;51.716;7.016;2023-03-12T22:24:40;10.30;99.90
71754;DHT22;59593;51.716;7.016;2023-03-12T22:27:05;10.40;99.90
71754;DHT22;59593;51.716;7.016;2023-03-12T22:29:32;10.30;99.90
71754;DHT22;59593;51.716;7.016;2023-03-12T22:31:58;10.30;99.90
71754;DHT22;59593;51.716;7.016;2023-03-12T22:34:24;10.30;99.90
71754;DHT22;59593;51.716;7.016;2023-03-12T22:36:50;10.30;99.90
71754;DHT22;59593;51.716;7.016;2023-03-12T22:39:16;10.40;99.90
71754;DHT22;59593;51.716;7.016;2023-03-12T22:41:42;10.40;99.90
71754;DHT22;59593;51.716;7.016;2023-03-12T22:44:08;10.40;99.90
71754;DHT22;59593;51.716;7.016;2023-03-12T22:46:34;10.50;99.90
71754;DHT22;59593;51.716;7.016;2023-03-12T22:49:02;10.50;99.90
71754;DHT22;59593;51.716;7.016;2023-03-12T22:51:30;10.50;99.90
71754;DHT22;59593;51.716;7.016;2023-03-12T22:53:56;10.60;99.90
71754;DHT22;59593;51.716;7.016;2023-03-12T22:56:22;10.50;99.90
71754;DHT22;59593;51.716;7.016;2023-03-12T22:58:48;10.50;99.90
71754;DHT22;59593;51.716;7.016;2023-03-12T23:01:17;10.50;99.90
71754;DHT22;59593;51.716;7.016;2023-03-12T23:03:44;10.50;99.90
71754;DHT22;59593;51.716;7.016;2023-03-12T23:06:18;10.50;99.90
71754;DHT22;59593;51.716;7.016;2023-03-12T23:08:44;10.50;99.90
71754;DHT22;59593;51.716;7.016;2023-03-12T23:11:11;10.50;99.90
71754;DHT22;59593;51.716;7.016;2023-03-12T23:13:39;10.60;99.90
71754;DHT22;59593;51.716;7.016;2023-03-12T23:16:08;10.60;99.90
71754;DHT22;59593;51.716;7.016;2023-03-12T23:18:35;10.50;99.90
71754;DHT22;59593;51.716;7.016;2023-03-12T23:21:05;10.50;99.90
71754;DHT22;59593;51.716;7.016;2023-03-12T23:23:31;10.50;99.90
71754;DHT22;59593;51.716;7.016;2023-03-12T23:25:58;10.50;99.90
71754;DHT22;59593;51.716;7.016;2023-03-12T23:28:26;10.50;99.90
71754;DHT22;59593;51.716;7.016;2023-03-12T23:30:56;10.50;99.90
71754;DHT22;59593;51.716;7.016;2023-03-12T23:33:23;10.50;99.90
71754;DHT22;59593;51.716;7.016;2023-03-12T23:36:03;10.60;99.90
71754;DHT22;59593;51.716;7.016;2023-03-12T23:38:30;10.60;99.90
71754;DHT22;59593;51.716;7.016;2023-03-12T23:41:09;10.60;99.90
71754;DHT22;59593;51.716;7.016;2023-03-12T23:43:35;10.60;99.90
71754;DHT22;59593;51.716;7.016;2023-03-12T23:46:02;10.50;99.90
71754;DHT22;59593;51.716;7.016;2023-03-12T23:48:30;10.50;99.90
71754;DHT22;59593;51.716;7.016;2023-03-12T23:53:34;10.60;99.90
71754;DHT22;59593;51.716;7.016;2023-03-12T23:56:02;10.60;99.90
71754;DHT22;59593;51.716;7.016;2023-03-12T23:58:28;10.60;99.90
